sensor_id;sensor_type;location;lat;lon;timestamp;temperature;humidity
61374;DHT22;47242;48.158;-1.586;2022-08-19T00:00:12;21.40;67.70
61374;DHT22;47242;48.158;-1.586;2022-08-19T00:02:40;21.30;67.70
61374;DHT22;47242;48.158;-1.586;2022-08-19T00:05:06;21.40;67.90
61374;DHT22;47242;48.158;-1.586;2022-08-19T00:07:32;21.30;67.80
61374;DHT22;47242;48.158;-1.586;2022-08-19T00:09:58;21.30;67.80
61374;DHT22;47242;48.158;-1.586;2022-08-19T00:12:24;21.30;67.90
61374;DHT22;47242;48.158;-1.586;2022-08-19T00:14:49;21.30;67.80
61374;DHT22;47242;48.158;-1.586;2022-08-19T00:17:17;21.20;68.10
61374;DHT22;47242;48.158;-1.586;2022-08-19T00:19:43;21.20;68.20
61374;DHT22;47242;48.158;-1.586;2022-08-19T00:22:08;21.20;68.20
61374;DHT22;47242;48.158;-1.586;2022-08-19T00:24:34;21.20;68.40
61374;DHT22;47242;48.158;-1.586;2022-08-19T00:27:00;21.20;68.40
61374;DHT22;47242;48.158;-1.586;2022-08-19T00:29:27;21.10;68.50
61374;DHT22;47242;48.158;-1.586;2022-08-19T00:31:53;21.10;68.90
61374;DHT22;47242;48.158;-1.586;2022-08-19T00:34:21;21.10;68.80
61374;DHT22;47242;48.158;-1.586;2022-08-19T00:36:48;21.10;69.10
61374;DHT22;47242;48.158;-1.586;2022-08-19T00:39:16;21.10;68.90
61374;DHT22;47242;48.158;-1.586;2022-08-19T00:41:43;21.20;69.00
61374;DHT22;47242;48.158;-1.586;2022-08-19T00:44:20;21.20;69.10
61374;DHT22;47242;48.158;-1.586;2022-08-19T00:46:47;21.20;69.00
61374;DHT22;47242;48.158;-1.586;2022-08-19T00:52:02;21.20;69.20
61374;DHT22;47242;48.158;-1.586;2022-08-19T00:54:29;21.20;69.20
61374;DHT22;47242;48.158;-1.586;2022-08-19T00:56:57;21.20;69.40
61374;DHT22;47242;48.158;-1.586;2022-08-19T00:59:23;21.30;69.40
61374;DHT22;47242;48.158;-1.586;2022-08-19T01:01:50;21.20;69.40
61374;DHT22;47242;48.158;-1.586;2022-08-19T01:04:16;21.30;69.70
61374;DHT22;47242;48.158;-1.586;2022-08-19T01:06:42;21.20;69.90
61374;DHT22;47242;48.158;-1.586;2022-08-19T01:09:08;21.20;69.90
61374;DHT22;47242;48.158;-1.586;2022-08-19T01:11:38;21.20;70.20
61374;DHT22;47242;48.158;-1.586;2022-08-19T01:14:05;21.10;70.70
61374;DHT22;47242;48.158;-1.586;2022-08-19T01:16:32;21.00;71.10
61374;DHT22;47242;48.158;-1.586;2022-08-19T01:18:58;21.00;71.20
61374;DHT22;47242;48.158;-1.586;2022-08-19T01:21:55;21.00;71.30
61374;DHT22;47242;48.158;-1.586;2022-08-19T01:24:21;21.00;71.30
61374;DHT22;47242;48.158;-1.586;2022-08-19T01:26:47;21.00;71.50
61374;DHT22;47242;48.158;-1.586;2022-08-19T01:29:13;21.00;71.60
61374;DHT22;47242;48.158;-1.586;2022-08-19T01:31:39;21.10;71.30
61374;DHT22;47242;48.158;-1.586;2022-08-19T01:34:06;21.10;71.70
61374;DHT22;47242;48.158;-1.586;2022-08-19T01:36:43;21.10;71.60
61374;DHT22;47242;48.158;-1.586;2022-08-19T01:39:24;21.10;71.30
61374;DHT22;47242;48.158;-1.586;2022-08-19T01:41:50;21.20;71.00
61374;DHT22;47242;48.158;-1.586;2022-08-19T01:44:17;21.10;71.70
61374;DHT22;47242;48.158;-1.586;2022-08-19T01:46:47;21.00;72.10
61374;DHT22;47242;48.158;-1.586;2022-08-19T01:49:13;21.00;72.10
61374;DHT22;47242;48.158;-1.586;2022-08-19T01:51:39;21.00;72.10
61374;DHT22;47242;48.158;-1.586;2022-08-19T01:54:04;21.00;72.00
61374;DHT22;47242;48.158;-1.586;2022-08-19T01:56:30;21.00;71.90
61374;DHT22;47242;48.158;-1.586;2022-08-19T01:59:03;21.10;71.70
61374;DHT22;47242;48.158;-1.586;2022-08-19T02:01:30;21.10;71.70
61374;DHT22;47242;48.158;-1.586;2022-08-19T02:04:00;21.10;71.60
61374;DHT22;47242;48.158;-1.586;2022-08-19T02:06:26;21.20;71.40
61374;DHT22;47242;48.158;-1.586;2022-08-19T02:08:52;21.20;71.40
61374;DHT22;47242;48.158;-1.586;2022-08-19T02:11:32;21.20;71.70
61374;DHT22;47242;48.158;-1.586;2022-08-19T02:14:04;21.10;71.70
61374;DHT22;47242;48.158;-1.586;2022-08-19T02:16:32;21.10;71.70
61374;DHT22;47242;48.158;-1.586;2022-08-19T02:18:58;21.10;72.10
61374;DHT22;47242;48.158;-1.586;2022-08-19T02:21:25;21.10;71.90
61374;DHT22;47242;48.158;-1.586;2022-08-19T02:23:51;21.10;72.30
61374;DHT22;47242;48.158;-1.586;2022-08-19T02:26:18;21.10;72.60
61374;DHT22;47242;48.158;-1.586;2022-08-19T02:28:45;21.10;72.20
61374;DHT22;47242;48.158;-1.586;2022-08-19T02:31:12;21.10;72.30
61374;DHT22;47242;48.158;-1.586;2022-08-19T02:33:40;21.10;72.90
61374;DHT22;47242;48.158;-1.586;2022-08-19T02:36:07;21.00;73.20
61374;DHT22;47242;48.158;-1.586;2022-08-19T02:38:33;21.00;73.20
61374;DHT22;47242;48.158;-1.586;2022-08-19T02:41:04;20.90;73.40
61374;DHT22;47242;48.158;-1.586;2022-08-19T02:43:32;21.00;73.10
61374;DHT22;47242;48.158;-1.586;2022-08-19T02:46:12;21.00;73.00
61374;DHT22;47242;48.158;-1.586;2022-08-19T02:48:38;21.00;73.00
61374;DHT22;47242;48.158;-1.586;2022-08-19T02:51:04;21.00;73.10
61374;DHT22;47242;48.158;-1.586;2022-08-19T02:53:30;21.00;73.20
61374;DHT22;47242;48.158;-1.586;2022-08-19T02:55:56;21.00;73.10
61374;DHT22;47242;48.158;-1.586;2022-08-19T02:58:23;21.00;73.30
61374;DHT22;47242;48.158;-1.586;2022-08-19T03:00:54;21.00;73.70
61374;DHT22;47242;48.158;-1.586;2022-08-19T03:03:20;21.00;73.70
61374;DHT22;47242;48.158;-1.586;2022-08-19T03:05:46;21.00;74.00
61374;DHT22;47242;48.158;-1.586;2022-08-19T03:08:12;20.90;73.90
61374;DHT22;47242;48.158;-1.586;2022-08-19T03:10:46;20.90;73.70
61374;DHT22;47242;48.158;-1.586;2022-08-19T03:13:30;20.90;74.70
61374;DHT22;47242;48.158;-1.586;2022-08-19T03:15:55;20.90;74.70
61374;DHT22;47242;48.158;-1.586;2022-08-19T03:18:21;20.90;74.90
61374;DHT22;47242;48.158;-1.586;2022-08-19T03:20:49;20.80;75.40
61374;DHT22;47242;48.158;-1.586;2022-08-19T03:23:16;20.90;74.80
61374;DHT22;47242;48.158;-1.586;2022-08-19T03:25:45;20.90;75.40
61374;DHT22;47242;48.158;-1.586;2022-08-19T03:28:12;20.80;75.30
61374;DHT22;47242;48.158;-1.586;2022-08-19T03:30:40;20.90;75.70
61374;DHT22;47242;48.158;-1.586;2022-08-19T03:33:08;20.80;76.10
61374;DHT22;47242;48.158;-1.586;2022-08-19T03:35:34;20.80;76.00
61374;DHT22;47242;48.158;-1.586;2022-08-19T03:38:03;20.80;76.30
61374;DHT22;47242;48.158;-1.586;2022-08-19T03:40:29;20.80;76.30
61374;DHT22;47242;48.158;-1.586;2022-08-19T03:42:56;20.80;76.40
61374;DHT22;47242;48.158;-1.586;2022-08-19T03:45:22;20.80;76.70
61374;DHT22;47242;48.158;-1.586;2022-08-19T03:47:51;20.80;77.00
61374;DHT22;47242;48.158;-1.586;2022-08-19T03:50:19;20.80;76.90
61374;DHT22;47242;48.158;-1.586;2022-08-19T03:52:49;20.80;76.60
61374;DHT22;47242;48.158;-1.586;2022-08-19T03:55:16;20.80;76.80
61374;DHT22;47242;48.158;-1.586;2022-08-19T03:57:42;20.80;76.90
61374;DHT22;47242;48.158;-1.586;2022-08-19T04:00:08;20.80;77.10
61374;DHT22;47242;48.158;-1.586;2022-08-19T04:02:34;20.80;77.30
61374;DHT22;47242;48.158;-1.586;2022-08-19T04:05:00;20.80;77.10
61374;DHT22;47242;48.158;-1.586;2022-08-19T04:07:26;20.80;77.20
61374;DHT22;47242;48.158;-1.586;2022-08-19T04:09:51;20.80;77.60
61374;DHT22;47242;48.158;-1.586;2022-08-19T04:12:18;20.70;78.00
61374;DHT22;47242;48.158;-1.586;2022-08-19T04:14:45;20.80;77.70
61374;DHT22;47242;48.158;-1.586;2022-08-19T04:17:11;20.70;77.90
61374;DHT22;47242;48.158;-1.586;2022-08-19T04:19:39;20.70;78.20
61374;DHT22;47242;48.158;-1.586;2022-08-19T04:22:05;20.70;78.20
61374;DHT22;47242;48.158;-1.586;2022-08-19T04:24:30;20.70;78.10
61374;DHT22;47242;48.158;-1.586;2022-08-19T04:26:56;20.80;78.20
61374;DHT22;47242;48.158;-1.586;2022-08-19T04:29:24;20.80;78.20
61374;DHT22;47242;48.158;-1.586;2022-08-19T04:31:52;20.70;78.50
61374;DHT22;47242;48.158;-1.586;2022-08-19T04:34:21;20.80;78.30
61374;DHT22;47242;48.158;-1.586;2022-08-19T04:36:51;20.80;78.10
61374;DHT22;47242;48.158;-1.586;2022-08-19T04:39:21;20.70;78.40
61374;DHT22;47242;48.158;-1.586;2022-08-19T04:41:47;20.70;78.70
61374;DHT22;47242;48.158;-1.586;2022-08-19T04:44:33;20.70;78.80
61374;DHT22;47242;48.158;-1.586;2022-08-19T04:46:59;20.60;78.80
61374;DHT22;47242;48.158;-1.586;2022-08-19T04:49:25;20.60;79.00
61374;DHT22;47242;48.158;-1.586;2022-08-19T04:51:53;20.70;78.80
61374;DHT22;47242;48.158;-1.586;2022-08-19T04:54:22;20.60;79.20
61374;DHT22;47242;48.158;-1.586;2022-08-19T04:56:52;20.70;79.10
61374;DHT22;47242;48.158;-1.586;2022-08-19T04:59:18;20.70;78.80
61374;DHT22;47242;48.158;-1.586;2022-08-19T05:01:48;20.70;79.10
61374;DHT22;47242;48.158;-1.586;2022-08-19T05:04:17;20.80;78.90
61374;DHT22;47242;48.158;-1.586;2022-08-19T05:06:44;20.70;78.90
61374;DHT22;47242;48.158;-1.586;2022-08-19T05:09:10;20.80;79.00
61374;DHT22;47242;48.158;-1.586;2022-08-19T05:11:36;20.80;79.00
61374;DHT22;47242;48.158;-1.586;2022-08-19T05:14:07;20.80;78.90
61374;DHT22;47242;48.158;-1.586;2022-08-19T05:16:33;20.80;79.00
61374;DHT22;47242;48.158;-1.586;2022-08-19T05:18:58;20.80;79.00
61374;DHT22;47242;48.158;-1.586;2022-08-19T05:21:43;20.80;79.10
61374;DHT22;47242;48.158;-1.586;2022-08-19T05:24:30;20.80;79.00
61374;DHT22;47242;48.158;-1.586;2022-08-19T05:27:00;20.80;78.90
61374;DHT22;47242;48.158;-1.586;2022-08-19T05:29:28;20.80;78.90
61374;DHT22;47242;48.158;-1.586;2022-08-19T05:31:55;20.80;78.70
61374;DHT22;47242;48.158;-1.586;2022-08-19T05:34:22;20.80;78.80
61374;DHT22;47242;48.158;-1.586;2022-08-19T05:36:51;20.70;79.30
61374;DHT22;47242;48.158;-1.586;2022-08-19T05:39:19;20.70;79.30
61374;DHT22;47242;48.158;-1.586;2022-08-19T05:41:51;20.80;79.40
61374;DHT22;47242;48.158;-1.586;2022-08-19T05:44:18;20.70;79.60
61374;DHT22;47242;48.158;-1.586;2022-08-19T05:46:45;20.80;79.40
61374;DHT22;47242;48.158;-1.586;2022-08-19T05:49:19;20.80;79.20
61374;DHT22;47242;48.158;-1.586;2022-08-19T05:51:45;20.80;79.20
61374;DHT22;47242;48.158;-1.586;2022-08-19T05:54:11;20.80;79.40
61374;DHT22;47242;48.158;-1.586;2022-08-19T05:56:40;20.80;79.40
61374;DHT22;47242;48.158;-1.586;2022-08-19T05:59:08;20.80;79.30
61374;DHT22;47242;48.158;-1.586;2022-08-19T06:01:40;20.80;79.40
61374;DHT22;47242;48.158;-1.586;2022-08-19T06:04:06;20.80;79.50
61374;DHT22;47242;48.158;-1.586;2022-08-19T06:06:33;20.80;79.30
61374;DHT22;47242;48.158;-1.586;2022-08-19T06:09:01;20.80;79.50
61374;DHT22;47242;48.158;-1.586;2022-08-19T06:11:42;20.80;79.10
61374;DHT22;47242;48.158;-1.586;2022-08-19T06:14:11;20.80;79.20
61374;DHT22;47242;48.158;-1.586;2022-08-19T06:16:40;20.80;79.10
61374;DHT22;47242;48.158;-1.586;2022-08-19T06:19:13;20.90;78.80
61374;DHT22;47242;48.158;-1.586;2022-08-19T06:21:41;20.80;79.00
61374;DHT22;47242;48.158;-1.586;2022-08-19T06:24:10;20.90;79.00
61374;DHT22;47242;48.158;-1.586;2022-08-19T06:26:39;20.80;79.20
61374;DHT22;47242;48.158;-1.586;2022-08-19T06:29:08;20.80;79.40
61374;DHT22;47242;48.158;-1.586;2022-08-19T06:31:35;20.80;79.40
61374;DHT22;47242;48.158;-1.586;2022-08-19T06:34:03;20.80;79.40
61374;DHT22;47242;48.158;-1.586;2022-08-19T06:36:33;20.80;79.30
61374;DHT22;47242;48.158;-1.586;2022-08-19T06:39:00;20.80;79.10
61374;DHT22;47242;48.158;-1.586;2022-08-19T06:41:26;20.80;79.20
61374;DHT22;47242;48.158;-1.586;2022-08-19T06:43:53;20.80;79.30
61374;DHT22;47242;48.158;-1.586;2022-08-19T06:46:19;20.80;79.50
61374;DHT22;47242;48.158;-1.586;2022-08-19T06:48:46;20.90;79.00
61374;DHT22;47242;48.158;-1.586;2022-08-19T06:51:14;21.10;78.60
61374;DHT22;47242;48.158;-1.586;2022-08-19T06:53:41;21.10;78.80
61374;DHT22;47242;48.158;-1.586;2022-08-19T06:56:11;21.10;79.00
61374;DHT22;47242;48.158;-1.586;2022-08-19T06:58:37;21.20;79.00
61374;DHT22;47242;48.158;-1.586;2022-08-19T07:01:04;21.20;79.10
61374;DHT22;47242;48.158;-1.586;2022-08-19T07:03:32;21.10;79.00
61374;DHT22;47242;48.158;-1.586;2022-08-19T07:06:15;21.00;79.30
61374;DHT22;47242;48.158;-1.586;2022-08-19T07:08:43;21.10;79.30
61374;DHT22;47242;48.158;-1.586;2022-08-19T07:11:11;21.10;79.40
61374;DHT22;47242;48.158;-1.586;2022-08-19T07:13:39;21.20;79.10
61374;DHT22;47242;48.158;-1.586;2022-08-19T07:16:10;21.30;79.00
61374;DHT22;47242;48.158;-1.586;2022-08-19T07:18:36;21.40;78.90
61374;DHT22;47242;48.158;-1.586;2022-08-19T07:21:06;21.60;78.60
61374;DHT22;47242;48.158;-1.586;2022-08-19T07:23:32;21.80;78.20
61374;DHT22;47242;48.158;-1.586;2022-08-19T07:26:03;21.90;77.60
61374;DHT22;47242;48.158;-1.586;2022-08-19T07:28:29;21.80;77.30
61374;DHT22;47242;48.158;-1.586;2022-08-19T07:30:55;21.90;77.40
61374;DHT22;47242;48.158;-1.586;2022-08-19T07:33:20;21.90;77.10
61374;DHT22;47242;48.158;-1.586;2022-08-19T07:35:46;21.90;76.90
61374;DHT22;47242;48.158;-1.586;2022-08-19T07:38:12;21.80;77.10
61374;DHT22;47242;48.158;-1.586;2022-08-19T07:40:41;21.70;77.00
61374;DHT22;47242;48.158;-1.586;2022-08-19T07:43:06;21.70;77.10
61374;DHT22;47242;48.158;-1.586;2022-08-19T07:45:32;21.80;77.30
61374;DHT22;47242;48.158;-1.586;2022-08-19T07:47:58;21.80;77.10
61374;DHT22;47242;48.158;-1.586;2022-08-19T07:50:24;21.90;76.90
61374;DHT22;47242;48.158;-1.586;2022-08-19T07:52:52;21.80;77.00
61374;DHT22;47242;48.158;-1.586;2022-08-19T07:55:24;21.80;77.10
61374;DHT22;47242;48.158;-1.586;2022-08-19T07:57:50;21.80;77.10
61374;DHT22;47242;48.158;-1.586;2022-08-19T08:00:18;21.80;76.90
61374;DHT22;47242;48.158;-1.586;2022-08-19T08:02:43;21.90;76.70
61374;DHT22;47242;48.158;-1.586;2022-08-19T08:05:10;22.10;76.40
61374;DHT22;47242;48.158;-1.586;2022-08-19T08:07:54;22.20;75.90
61374;DHT22;47242;48.158;-1.586;2022-08-19T08:10:39;22.30;75.70
61374;DHT22;47242;48.158;-1.586;2022-08-19T08:13:05;22.20;75.70
61374;DHT22;47242;48.158;-1.586;2022-08-19T08:15:34;22.30;75.60
61374;DHT22;47242;48.158;-1.586;2022-08-19T08:18:00;22.30;75.50
61374;DHT22;47242;48.158;-1.586;2022-08-19T08:20:26;22.30;75.30
61374;DHT22;47242;48.158;-1.586;2022-08-19T08:22:51;22.30;75.50
61374;DHT22;47242;48.158;-1.586;2022-08-19T08:25:36;22.30;75.20
61374;DHT22;47242;48.158;-1.586;2022-08-19T08:28:03;22.40;75.10
61374;DHT22;47242;48.158;-1.586;2022-08-19T08:30:29;22.40;74.90
61374;DHT22;47242;48.158;-1.586;2022-08-19T08:32:55;22.50;74.90
61374;DHT22;47242;48.158;-1.586;2022-08-19T08:35:23;22.40;74.50
61374;DHT22;47242;48.158;-1.586;2022-08-19T08:37:50;22.50;74.40
61374;DHT22;47242;48.158;-1.586;2022-08-19T08:40:26;22.60;74.50
61374;DHT22;47242;48.158;-1.586;2022-08-19T08:43:03;22.80;74.00
61374;DHT22;47242;48.158;-1.586;2022-08-19T08:45:33;23.20;73.20
61374;DHT22;47242;48.158;-1.586;2022-08-19T08:48:03;23.30;72.30
61374;DHT22;47242;48.158;-1.586;2022-08-19T08:50:38;23.50;71.80
61374;DHT22;47242;48.158;-1.586;2022-08-19T08:53:06;23.90;71.30
61374;DHT22;47242;48.158;-1.586;2022-08-19T08:55:34;24.10;70.20
61374;DHT22;47242;48.158;-1.586;2022-08-19T08:58:06;24.10;68.40
61374;DHT22;47242;48.158;-1.586;2022-08-19T09:00:39;24.10;68.80
61374;DHT22;47242;48.158;-1.586;2022-08-19T09:03:36;24.30;68.80
61374;DHT22;47242;48.158;-1.586;2022-08-19T09:06:09;24.30;68.70
61374;DHT22;47242;48.158;-1.586;2022-08-19T09:09:02;24.40;67.70
61374;DHT22;47242;48.158;-1.586;2022-08-19T09:14:42;24.60;67.00
61374;DHT22;47242;48.158;-1.586;2022-08-19T09:17:11;25.00;66.70
61374;DHT22;47242;48.158;-1.586;2022-08-19T09:19:52;25.20;65.90
61374;DHT22;47242;48.158;-1.586;2022-08-19T09:22:18;24.90;65.50
61374;DHT22;47242;48.158;-1.586;2022-08-19T09:24:51;24.70;66.60
61374;DHT22;47242;48.158;-1.586;2022-08-19T09:27:18;24.30;67.20
61374;DHT22;47242;48.158;-1.586;2022-08-19T09:29:46;24.10;68.70
61374;DHT22;47242;48.158;-1.586;2022-08-19T09:32:14;23.90;68.80
61374;DHT22;47242;48.158;-1.586;2022-08-19T09:34:40;23.80;69.50
61374;DHT22;47242;48.158;-1.586;2022-08-19T09:37:07;23.90;69.50
61374;DHT22;47242;48.158;-1.586;2022-08-19T09:39:32;23.80;69.10
61374;DHT22;47242;48.158;-1.586;2022-08-19T09:42:01;23.80;69.40
61374;DHT22;47242;48.158;-1.586;2022-08-19T09:44:29;23.90;69.40
61374;DHT22;47242;48.158;-1.586;2022-08-19T09:46:54;24.20;69.40
61374;DHT22;47242;48.158;-1.586;2022-08-19T09:49:21;24.30;69.10
61374;DHT22;47242;48.158;-1.586;2022-08-19T09:51:52;24.40;68.30
61374;DHT22;47242;48.158;-1.586;2022-08-19T09:54:19;24.40;68.00
61374;DHT22;47242;48.158;-1.586;2022-08-19T09:56:45;24.30;68.20
61374;DHT22;47242;48.158;-1.586;2022-08-19T09:59:11;24.20;68.60
61374;DHT22;47242;48.158;-1.586;2022-08-19T10:01:37;24.00;69.10
61374;DHT22;47242;48.158;-1.586;2022-08-19T10:04:03;24.00;69.60
61374;DHT22;47242;48.158;-1.586;2022-08-19T10:06:39;24.40;68.90
61374;DHT22;47242;48.158;-1.586;2022-08-19T10:09:10;26.00;66.10
61374;DHT22;47242;48.158;-1.586;2022-08-19T10:11:39;26.10;64.00
61374;DHT22;47242;48.158;-1.586;2022-08-19T10:14:05;25.90;63.40
61374;DHT22;47242;48.158;-1.586;2022-08-19T10:16:32;25.60;64.70
61374;DHT22;47242;48.158;-1.586;2022-08-19T10:18:58;25.10;65.30
61374;DHT22;47242;48.158;-1.586;2022-08-19T10:21:27;25.00;66.30
61374;DHT22;47242;48.158;-1.586;2022-08-19T10:23:56;25.10;66.20
61374;DHT22;47242;48.158;-1.586;2022-08-19T10:26:25;25.30;65.60
61374;DHT22;47242;48.158;-1.586;2022-08-19T10:28:51;25.40;65.40
61374;DHT22;47242;48.158;-1.586;2022-08-19T10:31:22;25.10;65.00
61374;DHT22;47242;48.158;-1.586;2022-08-19T10:33:49;24.90;65.30
61374;DHT22;47242;48.158;-1.586;2022-08-19T10:36:31;24.90;65.80
61374;DHT22;47242;48.158;-1.586;2022-08-19T10:39:05;24.90;66.40
61374;DHT22;47242;48.158;-1.586;2022-08-19T10:41:33;24.90;67.00
61374;DHT22;47242;48.158;-1.586;2022-08-19T10:44:02;25.30;67.30
61374;DHT22;47242;48.158;-1.586;2022-08-19T10:46:29;25.50;65.50
61374;DHT22;47242;48.158;-1.586;2022-08-19T10:48:58;25.60;66.00
61374;DHT22;47242;48.158;-1.586;2022-08-19T10:51:24;25.60;65.60
61374;DHT22;47242;48.158;-1.586;2022-08-19T10:54:09;25.70;65.40
61374;DHT22;47242;48.158;-1.586;2022-08-19T10:56:35;25.50;65.20
61374;DHT22;47242;48.158;-1.586;2022-08-19T10:59:24;25.30;65.20
61374;DHT22;47242;48.158;-1.586;2022-08-19T11:01:53;25.10;65.90
61374;DHT22;47242;48.158;-1.586;2022-08-19T11:04:20;25.00;66.30
61374;DHT22;47242;48.158;-1.586;2022-08-19T11:06:48;25.00;66.60
61374;DHT22;47242;48.158;-1.586;2022-08-19T11:09:23;25.10;66.00
61374;DHT22;47242;48.158;-1.586;2022-08-19T11:11:52;25.10;65.80
61374;DHT22;47242;48.158;-1.586;2022-08-19T11:14:20;25.10;65.60
61374;DHT22;47242;48.158;-1.586;2022-08-19T11:16:47;25.00;65.70
61374;DHT22;47242;48.158;-1.586;2022-08-19T11:19:13;24.90;67.50
61374;DHT22;47242;48.158;-1.586;2022-08-19T11:21:43;25.00;67.90
61374;DHT22;47242;48.158;-1.586;2022-08-19T11:24:13;25.00;68.20
61374;DHT22;47242;48.158;-1.586;2022-08-19T11:26:41;24.80;68.30
61374;DHT22;47242;48.158;-1.586;2022-08-19T11:29:08;24.80;69.60
61374;DHT22;47242;48.158;-1.586;2022-08-19T11:31:40;24.80;69.30
61374;DHT22;47242;48.158;-1.586;2022-08-19T11:34:10;24.80;69.10
61374;DHT22;47242;48.158;-1.586;2022-08-19T11:36:39;24.80;69.00
61374;DHT22;47242;48.158;-1.586;2022-08-19T11:39:07;25.00;68.60
61374;DHT22;47242;48.158;-1.586;2022-08-19T11:41:33;25.30;68.50
61374;DHT22;47242;48.158;-1.586;2022-08-19T11:44:00;25.50;68.10
61374;DHT22;47242;48.158;-1.586;2022-08-19T11:46:26;25.70;67.00
61374;DHT22;47242;48.158;-1.586;2022-08-19T11:48:58;25.80;65.70
61374;DHT22;47242;48.158;-1.586;2022-08-19T11:51:25;25.70;66.50
61374;DHT22;47242;48.158;-1.586;2022-08-19T11:53:52;25.50;69.00
61374;DHT22;47242;48.158;-1.586;2022-08-19T11:56:19;25.60;69.40
61374;DHT22;47242;48.158;-1.586;2022-08-19T11:58:45;25.70;69.90
61374;DHT22;47242;48.158;-1.586;2022-08-19T12:01:13;25.70;69.50
61374;DHT22;47242;48.158;-1.586;2022-08-19T12:03:46;25.80;69.50
61374;DHT22;47242;48.158;-1.586;2022-08-19T12:06:16;25.90;69.60
61374;DHT22;47242;48.158;-1.586;2022-08-19T12:08:45;26.00;69.00
61374;DHT22;47242;48.158;-1.586;2022-08-19T12:11:12;26.10;69.60
61374;DHT22;47242;48.158;-1.586;2022-08-19T12:13:39;26.00;69.30
61374;DHT22;47242;48.158;-1.586;2022-08-19T12:16:10;25.90;68.60
61374;DHT22;47242;48.158;-1.586;2022-08-19T12:18:38;25.90;69.40
61374;DHT22;47242;48.158;-1.586;2022-08-19T12:21:06;25.80;68.80
61374;DHT22;47242;48.158;-1.586;2022-08-19T12:23:32;25.70;69.30
61374;DHT22;47242;48.158;-1.586;2022-08-19T12:25:58;25.40;69.50
61374;DHT22;47242;48.158;-1.586;2022-08-19T12:28:24;25.30;70.40
61374;DHT22;47242;48.158;-1.586;2022-08-19T12:30:50;25.20;69.10
61374;DHT22;47242;48.158;-1.586;2022-08-19T12:33:20;25.30;69.90
61374;DHT22;47242;48.158;-1.586;2022-08-19T12:35:49;25.30;68.50
61374;DHT22;47242;48.158;-1.586;2022-08-19T12:38:15;25.50;68.60
61374;DHT22;47242;48.158;-1.586;2022-08-19T12:40:44;25.70;67.50
61374;DHT22;47242;48.158;-1.586;2022-08-19T12:43:10;25.80;67.30
61374;DHT22;47242;48.158;-1.586;2022-08-19T12:45:37;26.00;66.60
61374;DHT22;47242;48.158;-1.586;2022-08-19T12:48:04;26.30;67.20
61374;DHT22;47242;48.158;-1.586;2022-08-19T12:50:30;26.40;65.90
61374;DHT22;47242;48.158;-1.586;2022-08-19T12:52:56;26.40;64.70
61374;DHT22;47242;48.158;-1.586;2022-08-19T12:55:22;26.50;65.00
61374;DHT22;47242;48.158;-1.586;2022-08-19T12:57:48;26.40;64.60
61374;DHT22;47242;48.158;-1.586;2022-08-19T13:00:17;26.40;64.00
61374;DHT22;47242;48.158;-1.586;2022-08-19T13:02:45;26.30;64.50
61374;DHT22;47242;48.158;-1.586;2022-08-19T13:05:18;26.10;64.40
61374;DHT22;47242;48.158;-1.586;2022-08-19T13:07:49;25.90;64.70
61374;DHT22;47242;48.158;-1.586;2022-08-19T13:10:20;25.80;65.10
61374;DHT22;47242;48.158;-1.586;2022-08-19T13:12:49;25.90;65.60
61374;DHT22;47242;48.158;-1.586;2022-08-19T13:15:17;26.00;65.30
61374;DHT22;47242;48.158;-1.586;2022-08-19T13:17:46;26.00;65.40
61374;DHT22;47242;48.158;-1.586;2022-08-19T13:20:15;26.00;65.20
61374;DHT22;47242;48.158;-1.586;2022-08-19T13:22:41;25.70;65.60
61374;DHT22;47242;48.158;-1.586;2022-08-19T13:25:08;25.30;66.30
61374;DHT22;47242;48.158;-1.586;2022-08-19T13:27:34;25.20;68.00
61374;DHT22;47242;48.158;-1.586;2022-08-19T13:30:02;25.00;67.00
61374;DHT22;47242;48.158;-1.586;2022-08-19T13:32:47;25.00;67.20
61374;DHT22;47242;48.158;-1.586;2022-08-19T13:35:31;25.10;65.90
61374;DHT22;47242;48.158;-1.586;2022-08-19T13:37:57;25.10;64.80
61374;DHT22;47242;48.158;-1.586;2022-08-19T13:40:24;25.10;65.10
61374;DHT22;47242;48.158;-1.586;2022-08-19T13:42:53;25.20;64.90
61374;DHT22;47242;48.158;-1.586;2022-08-19T13:45:22;25.30;64.10
61374;DHT22;47242;48.158;-1.586;2022-08-19T13:47:50;25.30;64.40
61374;DHT22;47242;48.158;-1.586;2022-08-19T13:50:18;25.20;64.70
61374;DHT22;47242;48.158;-1.586;2022-08-19T13:52:46;25.00;64.90
61374;DHT22;47242;48.158;-1.586;2022-08-19T13:55:13;24.70;66.30
61374;DHT22;47242;48.158;-1.586;2022-08-19T13:57:40;24.60;67.50
61374;DHT22;47242;48.158;-1.586;2022-08-19T14:00:10;24.40;68.70
61374;DHT22;47242;48.158;-1.586;2022-08-19T14:02:37;24.30;69.10
61374;DHT22;47242;48.158;-1.586;2022-08-19T14:05:06;24.30;69.60
61374;DHT22;47242;48.158;-1.586;2022-08-19T14:07:31;24.10;69.90
61374;DHT22;47242;48.158;-1.586;2022-08-19T14:09:57;24.00;70.10
61374;DHT22;47242;48.158;-1.586;2022-08-19T14:12:23;24.10;70.60
61374;DHT22;47242;48.158;-1.586;2022-08-19T14:14:48;24.20;70.70
61374;DHT22;47242;48.158;-1.586;2022-08-19T14:17:15;24.20;70.50
61374;DHT22;47242;48.158;-1.586;2022-08-19T14:19:41;24.30;70.50
61374;DHT22;47242;48.158;-1.586;2022-08-19T14:22:07;24.20;70.70
61374;DHT22;47242;48.158;-1.586;2022-08-19T14:24:33;24.20;70.70
61374;DHT22;47242;48.158;-1.586;2022-08-19T14:26:58;24.00;71.00
61374;DHT22;47242;48.158;-1.586;2022-08-19T14:29:25;24.10;71.10
61374;DHT22;47242;48.158;-1.586;2022-08-19T14:31:50;24.20;71.10
61374;DHT22;47242;48.158;-1.586;2022-08-19T14:34:16;24.20;70.80
61374;DHT22;47242;48.158;-1.586;2022-08-19T14:36:41;24.10;71.10
61374;DHT22;47242;48.158;-1.586;2022-08-19T14:39:08;24.00;71.20
61374;DHT22;47242;48.158;-1.586;2022-08-19T14:41:35;23.80;71.30
61374;DHT22;47242;48.158;-1.586;2022-08-19T14:44:00;23.70;71.40
61374;DHT22;47242;48.158;-1.586;2022-08-19T14:46:28;23.70;70.90
61374;DHT22;47242;48.158;-1.586;2022-08-19T14:48:54;23.60;70.70
61374;DHT22;47242;48.158;-1.586;2022-08-19T14:51:21;23.60;70.50
61374;DHT22;47242;48.158;-1.586;2022-08-19T14:53:47;23.50;70.70
61374;DHT22;47242;48.158;-1.586;2022-08-19T14:56:19;23.40;70.60
61374;DHT22;47242;48.158;-1.586;2022-08-19T14:58:45;23.50;70.50
61374;DHT22;47242;48.158;-1.586;2022-08-19T15:01:11;23.70;70.30
61374;DHT22;47242;48.158;-1.586;2022-08-19T15:03:38;23.70;70.10
61374;DHT22;47242;48.158;-1.586;2022-08-19T15:06:06;23.70;69.70
61374;DHT22;47242;48.158;-1.586;2022-08-19T15:08:35;23.60;69.50
61374;DHT22;47242;48.158;-1.586;2022-08-19T15:11:02;23.80;69.80
61374;DHT22;47242;48.158;-1.586;2022-08-19T15:13:32;23.80;69.80
61374;DHT22;47242;48.158;-1.586;2022-08-19T15:15:58;23.80;69.80
61374;DHT22;47242;48.158;-1.586;2022-08-19T15:18:24;23.80;69.60
61374;DHT22;47242;48.158;-1.586;2022-08-19T15:20:49;23.60;69.30
61374;DHT22;47242;48.158;-1.586;2022-08-19T15:23:17;23.30;69.40
61374;DHT22;47242;48.158;-1.586;2022-08-19T15:25:43;23.30;69.00
61374;DHT22;47242;48.158;-1.586;2022-08-19T15:28:09;23.30;69.00